createdAt,value
2017-02-16T00:00:13.357Z,60.36
2017-02-16T00:01:12.972Z,60.33
2017-02-16T00:02:12.873Z,60.38
2017-02-16T00:03:13.798Z,60.39
2017-02-16T00:04:13.585Z,60.41
2017-02-16T00:05:12.456Z,60.47
2017-02-16T00:06:12.457Z,60.35
2017-02-16T00:07:12.538Z,60.40
2017-02-16T00:08:15.232Z,60.42
2017-02-16T00:09:12.774Z,60.46
2017-02-16T00:10:14.089Z,60.51
2017-02-16T00:11:12.290Z,60.38
2017-02-16T00:12:13.101Z,60.47
2017-02-16T00:13:12.277Z,60.41
2017-02-16T00:14:12.335Z,60.48
2017-02-16T00:15:12.829Z,60.40
2017-02-16T00:16:12.939Z,60.50
2017-02-16T00:17:13.432Z,60.44
2017-02-16T00:18:12.664Z,60.53
2017-02-16T00:19:14.528Z,60.44
2017-02-16T00:20:13.096Z,60.23
2017-02-16T00:21:15.333Z,59.54
2017-02-16T00:22:12.285Z,59.35
2017-02-16T00:23:13.074Z,59.20
2017-02-16T00:24:13.111Z,59.20
2017-02-16T00:25:10.371Z,59.16
2017-02-16T00:26:12.457Z,59.11
2017-02-16T00:27:13.352Z,59.04
2017-02-16T00:28:13.148Z,58.98
2017-02-16T00:29:12.806Z,59.13
2017-02-16T00:30:13.066Z,59.21
2017-02-16T00:31:12.917Z,60.06
2017-02-16T00:32:13.543Z,60.31
2017-02-16T00:33:13.316Z,60.33
2017-02-16T00:34:11.233Z,60.42
2017-02-16T00:35:12.417Z,59.59
2017-02-16T00:36:14.043Z,59.30
2017-02-16T00:37:12.688Z,59.32
2017-02-16T00:38:12.695Z,59.17
2017-02-16T00:39:13.281Z,59.17
2017-02-16T00:40:17.958Z,59.24
2017-02-16T00:41:13.468Z,60.04
2017-02-16T00:42:14.313Z,60.24
2017-02-16T00:43:14.081Z,60.51
2017-02-16T00:44:12.693Z,60.45
2017-02-16T00:45:14.303Z,60.54
2017-02-16T00:46:12.355Z,60.58
2017-02-16T00:47:13.010Z,60.62
2017-02-16T00:48:12.859Z,60.64
2017-02-16T00:49:12.846Z,60.49
2017-02-16T00:50:13.517Z,60.61
2017-02-16T00:51:13.471Z,60.60
2017-02-16T00:52:12.504Z,60.55
2017-02-16T00:53:13.085Z,60.59
2017-02-16T00:54:12.927Z,60.52
2017-02-16T00:55:13.745Z,60.61
2017-02-16T00:56:12.815Z,60.62
2017-02-16T00:57:15.715Z,60.74
2017-02-16T00:59:12.010Z,60.74
2017-02-16T01:00:13.066Z,60.87
2017-02-16T01:01:12.752Z,60.77
2017-02-16T01:02:14.528Z,60.89
2017-02-16T01:03:15.490Z,60.67
2017-02-16T01:04:15.976Z,60.85
2017-02-16T01:05:13.263Z,60.81
2017-02-16T01:06:16.571Z,60.80
2017-02-16T01:07:13.889Z,60.91
2017-02-16T01:08:13.148Z,60.86
2017-02-16T01:09:13.897Z,60.93
2017-02-16T01:10:15.180Z,60.80
2017-02-16T01:11:14.299Z,60.92
2017-02-16T01:12:15.151Z,60.93
2017-02-16T01:13:12.886Z,61.05
2017-02-16T01:14:14.799Z,60.99
2017-02-16T01:15:14.657Z,60.95
2017-02-16T01:16:13.358Z,61.03
2017-02-16T01:17:12.772Z,60.88
2017-02-16T01:18:16.373Z,60.96
2017-02-16T01:19:12.254Z,60.86
2017-02-16T01:20:13.120Z,61.03
2017-02-16T01:21:14.680Z,60.94
2017-02-16T01:22:13.439Z,60.99
2017-02-16T01:23:14.037Z,61.10
2017-02-16T01:24:14.168Z,61.11
2017-02-16T01:25:13.829Z,60.94
2017-02-16T01:26:15.479Z,60.96
2017-02-16T01:27:15.885Z,61.11
2017-02-16T01:28:14.567Z,61.03
2017-02-16T01:29:13.130Z,61.07
2017-02-16T01:30:13.302Z,61.04
2017-02-16T01:31:12.867Z,61.04
2017-02-16T01:32:15.314Z,61.29
2017-02-16T01:33:12.466Z,61.18
2017-02-16T01:34:14.452Z,61.16
2017-02-16T01:35:13.194Z,61.26
2017-02-16T01:36:12.990Z,61.37
2017-02-16T01:37:12.668Z,61.39
2017-02-16T01:38:14.278Z,61.26
2017-02-16T01:39:13.420Z,61.43
2017-02-16T01:40:14.091Z,61.24
2017-02-16T01:41:12.666Z,61.39
2017-02-16T01:42:11.191Z,61.47
2017-02-16T01:43:13.081Z,61.47
2017-02-16T01:44:12.868Z,61.34
2017-02-16T01:45:14.496Z,61.50
2017-02-16T01:46:14.311Z,61.41
2017-02-16T01:47:13.171Z,61.38
2017-02-16T01:48:12.855Z,61.56
2017-02-16T01:49:13.835Z,61.33
2017-02-16T01:50:14.389Z,61.41
2017-02-16T01:51:13.177Z,61.58
2017-02-16T01:52:12.770Z,61.64
2017-02-16T01:53:14.511Z,61.52
2017-02-16T01:54:13.615Z,61.64
2017-02-16T01:55:15.029Z,61.64
2017-02-16T01:56:13.856Z,61.70
2017-02-16T01:57:14.386Z,61.65
2017-02-16T01:58:13.407Z,61.64
2017-02-16T01:59:14.279Z,61.56
2017-02-16T02:00:13.233Z,61.82
2017-02-16T02:01:13.368Z,61.60
2017-02-16T02:02:12.857Z,61.81
2017-02-16T02:03:13.634Z,61.67
2017-02-16T02:04:15.137Z,61.54
2017-02-16T02:05:14.251Z,60.86
2017-02-16T02:06:14.098Z,60.52
2017-02-16T02:07:14.010Z,60.58
2017-02-16T02:08:14.261Z,60.82
2017-02-16T02:09:12.861Z,61.28
2017-02-16T02:10:14.692Z,61.50
2017-02-16T02:11:13.529Z,61.77
2017-02-16T02:12:13.161Z,61.74
2017-02-16T02:13:12.676Z,61.79
2017-02-16T02:14:13.686Z,61.74
2017-02-16T02:15:15.409Z,61.81
2017-02-16T02:16:13.638Z,61.72
2017-02-16T02:17:13.548Z,61.76
2017-02-16T02:18:14.241Z,61.68
2017-02-16T02:19:14.095Z,61.70
2017-02-16T02:20:12.640Z,61.75
2017-02-16T02:21:12.518Z,61.94
2017-02-16T02:22:14.687Z,61.76
2017-02-16T02:23:14.216Z,61.98
2017-02-16T02:24:13.258Z,61.63
2017-02-16T02:25:14.052Z,61.63
2017-02-16T02:26:12.718Z,61.63
2017-02-16T02:27:13.622Z,61.60
2017-02-16T02:28:13.727Z,61.69
2017-02-16T02:29:13.726Z,61.46
2017-02-16T02:30:13.769Z,60.58
2017-02-16T02:31:13.749Z,60.61
2017-02-16T02:32:13.836Z,61.27
2017-02-16T02:33:14.650Z,61.41
2017-02-16T02:34:13.358Z,61.39
2017-02-16T02:35:14.260Z,61.51
2017-02-16T02:36:13.600Z,61.52
2017-02-16T02:37:14.251Z,61.50
2017-02-16T02:38:16.954Z,61.57
2017-02-16T02:39:13.052Z,61.49
2017-02-16T02:40:13.978Z,61.47
2017-02-16T02:41:13.275Z,61.59
2017-02-16T02:42:13.175Z,61.47
2017-02-16T02:43:13.960Z,61.51
2017-02-16T02:44:12.520Z,61.56
2017-02-16T02:45:13.120Z,61.65
2017-02-16T02:46:14.239Z,61.46
2017-02-16T02:47:13.257Z,60.75
2017-02-16T02:48:13.388Z,61.28
2017-02-16T02:49:12.690Z,61.35
2017-02-16T02:50:13.720Z,61.57
2017-02-16T02:51:13.507Z,61.49
2017-02-16T02:52:15.660Z,61.52
2017-02-16T02:53:13.438Z,61.51
2017-02-16T02:54:15.239Z,61.62
2017-02-16T02:55:12.944Z,61.51
2017-02-16T02:56:13.681Z,61.59
2017-02-16T02:57:15.624Z,61.56
2017-02-16T02:58:13.829Z,61.51
2017-02-16T02:59:13.095Z,61.64
2017-02-16T03:00:14.920Z,61.57
2017-02-16T03:01:14.930Z,61.55
2017-02-16T03:02:13.040Z,61.56
2017-02-16T03:03:12.747Z,61.51
2017-02-16T03:04:14.772Z,61.53
2017-02-16T03:05:13.827Z,61.53
2017-02-16T03:06:13.670Z,62.29
2017-02-16T03:07:13.904Z,62.36
2017-02-16T03:08:13.506Z,62.45
2017-02-16T03:09:13.565Z,62.32
2017-02-16T03:10:13.635Z,62.10
2017-02-16T03:11:13.453Z,62.08
2017-02-16T03:12:16.626Z,62.21
2017-02-16T03:13:13.859Z,62.08
2017-02-16T03:14:13.526Z,62.04
2017-02-16T03:15:14.247Z,62.06
2017-02-16T03:16:13.995Z,61.91
2017-02-16T03:17:14.194Z,62.08
2017-02-16T03:18:14.360Z,61.89
2017-02-16T03:19:12.293Z,61.83
2017-02-16T03:20:13.044Z,62.16
2017-02-16T03:21:13.363Z,61.96
2017-02-16T03:22:11.174Z,61.92
2017-02-16T03:23:15.138Z,62.02
2017-02-16T03:24:12.809Z,61.95
2017-02-16T03:25:14.129Z,61.97
2017-02-16T03:26:13.043Z,62.07
2017-02-16T03:27:13.773Z,61.95
2017-02-16T03:28:13.645Z,62.01
2017-02-16T03:29:13.783Z,61.95
2017-02-16T03:30:13.488Z,61.86
2017-02-16T03:31:14.188Z,62.02
2017-02-16T03:32:13.901Z,62.11
2017-02-16T03:33:15.772Z,62.14
2017-02-16T03:34:13.548Z,62.12
2017-02-16T03:35:13.659Z,62.21
2017-02-16T03:36:13.952Z,61.98
2017-02-16T03:37:12.943Z,62.03
2017-02-16T03:38:12.975Z,61.94
2017-02-16T03:39:12.584Z,62.06
2017-02-16T03:40:13.714Z,62.09
2017-02-16T03:41:13.420Z,61.93
2017-02-16T03:42:14.168Z,62.16
2017-02-16T03:43:13.299Z,61.99
2017-02-16T03:44:14.618Z,61.96
2017-02-16T03:45:15.102Z,61.99
2017-02-16T03:46:12.867Z,62.05
2017-02-16T03:47:13.666Z,62.15
2017-02-16T03:48:13.543Z,62.04
2017-02-16T03:49:15.322Z,62.10
2017-02-16T03:50:12.954Z,62.04
2017-02-16T03:51:12.965Z,62.04
2017-02-16T03:52:13.606Z,62.03
2017-02-16T03:53:14.448Z,62.09
2017-02-16T03:54:13.681Z,62.22
2017-02-16T03:55:12.861Z,62.10
2017-02-16T03:56:14.569Z,62.15
2017-02-16T03:57:13.302Z,62.25
2017-02-16T03:58:14.456Z,62.26
2017-02-16T03:59:13.216Z,62.40
2017-02-16T04:00:13.376Z,62.39
2017-02-16T04:01:13.633Z,61.93
2017-02-16T04:02:14.603Z,62.25
2017-02-16T04:03:13.577Z,61.95
2017-02-16T04:04:13.318Z,61.93
2017-02-16T04:05:13.023Z,62.02
2017-02-16T04:06:12.772Z,62.10
2017-02-16T04:07:14.419Z,62.04
2017-02-16T04:08:15.006Z,62.02
2017-02-16T04:09:13.024Z,61.96
2017-02-16T04:10:11.892Z,61.94
2017-02-16T04:11:13.785Z,62.01
2017-02-16T04:12:13.697Z,61.97
2017-02-16T04:13:14.316Z,62.00
2017-02-16T04:14:12.884Z,62.01
2017-02-16T04:15:14.035Z,62.03
2017-02-16T04:16:12.811Z,62.03
2017-02-16T04:17:13.851Z,62.03
2017-02-16T04:18:12.867Z,62.01
2017-02-16T04:19:13.785Z,61.99
2017-02-16T04:20:14.449Z,62.01
2017-02-16T04:21:14.503Z,61.99
2017-02-16T04:22:13.652Z,62.01
2017-02-16T04:23:14.384Z,62.05
2017-02-16T04:24:14.173Z,62.01
2017-02-16T04:25:13.351Z,62.01
2017-02-16T04:26:13.578Z,61.92
2017-02-16T04:27:13.032Z,61.97
2017-02-16T04:28:13.694Z,61.97
2017-02-16T04:29:13.495Z,61.99
2017-02-16T04:30:14.247Z,62.08
2017-02-16T04:31:14.185Z,62.00
2017-02-16T04:32:12.896Z,62.06
2017-02-16T04:33:13.664Z,62.09
2017-02-16T04:34:13.345Z,62.21
2017-02-16T04:35:13.306Z,62.09
2017-02-16T04:36:14.118Z,62.08
2017-02-16T04:37:13.037Z,62.08
2017-02-16T04:38:12.145Z,62.08
2017-02-16T04:39:13.694Z,62.07
2017-02-16T04:40:14.826Z,62.01
2017-02-16T04:41:16.495Z,61.98
2017-02-16T04:42:13.416Z,62.13
2017-02-16T04:43:13.411Z,62.01
2017-02-16T04:44:12.344Z,62.00
2017-02-16T04:45:12.985Z,62.08
2017-02-16T04:46:14.416Z,62.23
2017-02-16T04:47:13.083Z,62.31
2017-02-16T04:48:12.865Z,62.40
2017-02-16T04:49:13.955Z,62.21
2017-02-16T04:50:13.462Z,62.29
2017-02-16T04:51:12.859Z,62.38
2017-02-16T04:52:13.738Z,62.41
2017-02-16T04:53:14.465Z,62.37
2017-02-16T04:54:14.265Z,62.28
2017-02-16T04:55:14.031Z,62.23
2017-02-16T04:56:13.696Z,62.19
2017-02-16T04:57:14.233Z,62.15
2017-02-16T04:58:12.893Z,62.27
2017-02-16T04:59:15.565Z,62.16
2017-02-16T05:00:12.629Z,62.27
2017-02-16T05:01:14.416Z,62.09
2017-02-16T05:02:13.276Z,62.09
2017-02-16T05:03:14.209Z,62.16
2017-02-16T05:04:13.550Z,62.33
2017-02-16T05:05:13.811Z,62.29
2017-02-16T05:06:13.580Z,62.24
2017-02-16T05:07:13.099Z,62.31
2017-02-16T05:08:13.248Z,62.33
2017-02-16T05:09:12.465Z,62.16
2017-02-16T05:10:13.528Z,62.22
2017-02-16T05:11:13.685Z,62.26
2017-02-16T05:12:14.490Z,62.20
2017-02-16T05:13:15.079Z,62.40
2017-02-16T05:14:13.066Z,62.42
2017-02-16T05:15:13.146Z,62.51
2017-02-16T05:16:14.887Z,62.61
2017-02-16T05:17:14.643Z,62.60
2017-02-16T05:18:14.031Z,62.42
2017-02-16T05:19:12.797Z,62.35
2017-02-16T05:20:13.590Z,62.34
2017-02-16T05:21:12.737Z,62.32
2017-02-16T05:22:14.646Z,61.33
2017-02-16T05:23:14.259Z,61.98
2017-02-16T05:24:14.976Z,62.02
2017-02-16T05:25:18.171Z,62.04
2017-02-16T05:26:17.663Z,62.16
2017-02-16T05:27:14.749Z,61.99
2017-02-16T05:28:13.670Z,62.02
2017-02-16T05:29:12.838Z,61.97
2017-02-16T05:30:14.262Z,61.99
2017-02-16T05:31:13.457Z,61.97
2017-02-16T05:32:12.878Z,62.00
2017-02-16T05:33:15.174Z,62.02
2017-02-16T05:34:13.789Z,62.02
2017-02-16T05:35:14.723Z,62.01
2017-02-16T05:36:14.549Z,61.93
2017-02-16T05:37:16.657Z,61.93
2017-02-16T05:38:14.459Z,61.87
2017-02-16T05:39:13.066Z,61.96
2017-02-16T05:40:14.908Z,61.90
2017-02-16T05:41:14.079Z,61.90
2017-02-16T05:42:13.938Z,61.95
2017-02-16T05:43:12.961Z,61.91
2017-02-16T05:44:14.474Z,61.88
2017-02-16T05:45:14.195Z,61.86
2017-02-16T05:46:13.505Z,61.87
2017-02-16T05:47:13.644Z,61.83
2017-02-16T05:48:14.277Z,62.41
2017-02-16T05:49:12.877Z,62.56
2017-02-16T05:50:13.706Z,62.58
2017-02-16T05:51:13.679Z,62.51
2017-02-16T05:52:13.420Z,62.29
2017-02-16T05:53:15.262Z,62.15
2017-02-16T05:54:12.514Z,62.18
2017-02-16T05:55:14.750Z,62.27
2017-02-16T05:56:13.618Z,62.39
2017-02-16T05:57:14.639Z,62.42
2017-02-16T05:58:14.429Z,62.35
2017-02-16T05:59:13.106Z,62.39
2017-02-16T06:00:13.730Z,62.32
2017-02-16T06:01:13.715Z,62.34
2017-02-16T06:02:13.494Z,62.21
2017-02-16T06:03:15.280Z,62.30
2017-02-16T06:04:13.603Z,62.32
2017-02-16T06:05:14.594Z,62.38
2017-02-16T06:06:15.564Z,62.40
2017-02-16T06:07:13.702Z,62.38
2017-02-16T06:08:13.636Z,62.30
2017-02-16T06:09:13.381Z,62.36
2017-02-16T06:10:15.197Z,62.41
2017-02-16T06:11:12.895Z,62.35
2017-02-16T06:12:15.685Z,62.46
2017-02-16T06:13:14.673Z,62.38
2017-02-16T06:14:13.750Z,62.31
2017-02-16T06:15:14.759Z,62.30
2017-02-16T06:16:13.422Z,62.38
2017-02-16T06:17:11.842Z,62.35
2017-02-16T06:18:11.779Z,62.32
2017-02-16T06:19:14.858Z,62.32
2017-02-16T06:20:13.005Z,62.33
2017-02-16T06:21:12.669Z,62.58
2017-02-16T06:22:13.669Z,62.71
2017-02-16T06:23:11.284Z,62.71
2017-02-16T06:24:13.299Z,62.71
2017-02-16T06:25:12.965Z,62.70
2017-02-16T06:26:13.106Z,62.55
2017-02-16T06:27:14.828Z,62.52
2017-02-16T06:28:14.006Z,62.50
2017-02-16T06:29:13.669Z,62.54
2017-02-16T06:30:15.567Z,62.51
2017-02-16T06:31:14.196Z,62.51
2017-02-16T06:32:13.905Z,62.39
2017-02-16T06:33:15.817Z,62.33
2017-02-16T06:34:13.275Z,62.26
2017-02-16T06:35:13.537Z,62.31
2017-02-16T06:36:15.399Z,62.30
2017-02-16T06:37:12.539Z,62.31
2017-02-16T06:38:13.082Z,62.36
2017-02-16T06:39:12.286Z,62.31
2017-02-16T06:40:14.081Z,62.44
2017-02-16T06:41:13.626Z,62.53
2017-02-16T06:42:15.516Z,62.49
2017-02-16T06:43:14.373Z,62.42
2017-02-16T06:44:14.182Z,62.43
2017-02-16T06:45:13.459Z,62.42
2017-02-16T06:46:13.162Z,62.37
2017-02-16T06:47:12.991Z,62.33
2017-02-16T06:48:15.718Z,62.34
2017-02-16T06:49:13.436Z,62.42
2017-02-16T06:50:14.013Z,62.29
2017-02-16T06:51:13.815Z,62.39
2017-02-16T06:52:13.554Z,62.25
2017-02-16T06:53:13.651Z,62.26
2017-02-16T06:54:14.284Z,62.25
2017-02-16T06:55:12.966Z,62.27
2017-02-16T06:56:13.679Z,62.27
2017-02-16T06:57:11.677Z,62.09
2017-02-16T06:58:13.560Z,62.25
2017-02-16T06:59:13.282Z,62.25
2017-02-16T07:00:13.636Z,62.23
2017-02-16T07:01:12.478Z,62.26
2017-02-16T07:02:13.444Z,62.25
2017-02-16T07:03:13.064Z,62.26
2017-02-16T07:04:12.586Z,62.23
2017-02-16T07:05:14.310Z,62.23
2017-02-16T07:06:13.334Z,62.24
2017-02-16T07:07:13.091Z,62.21
2017-02-16T07:08:13.148Z,62.18
2017-02-16T07:09:14.513Z,62.24
2017-02-16T07:10:14.139Z,62.05
2017-02-16T07:11:13.771Z,61.28
2017-02-16T07:12:14.402Z,62.02
2017-02-16T07:13:15.224Z,62.12
2017-02-16T07:14:14.005Z,62.48
2017-02-16T07:15:13.797Z,62.53
2017-02-16T07:16:13.497Z,62.60
2017-02-16T07:17:14.279Z,62.56
2017-02-16T07:18:14.904Z,62.49
2017-02-16T07:19:13.722Z,62.45
2017-02-16T07:20:14.380Z,62.40
2017-02-16T07:21:12.967Z,61.36
2017-02-16T07:22:12.997Z,62.17
2017-02-16T07:23:12.803Z,62.26
2017-02-16T07:24:14.710Z,62.23
2017-02-16T07:25:15.279Z,62.57
2017-02-16T07:26:13.694Z,62.84
2017-02-16T07:27:13.943Z,62.92
2017-02-16T07:28:13.928Z,63.07
2017-02-16T07:29:12.179Z,63.36
2017-02-16T07:30:12.659Z,63.84
2017-02-16T07:31:13.596Z,63.00
2017-02-16T07:32:13.075Z,61.48
2017-02-16T07:33:12.929Z,60.50
2017-02-16T07:34:13.629Z,57.43
2017-02-16T07:35:14.375Z,40.33
2017-02-16T07:36:12.855Z,40.11
2017-02-16T07:37:13.869Z,37.89
2017-02-16T07:38:13.980Z,38.06
2017-02-16T07:39:13.500Z,39.75
2017-02-16T07:40:14.874Z,39.26
2017-02-16T07:41:13.805Z,39.40
2017-02-16T07:42:14.820Z,40.89
2017-02-16T07:43:13.958Z,42.80
2017-02-16T07:44:13.682Z,42.53
2017-02-16T07:45:14.067Z,44.23
2017-02-16T07:46:12.441Z,44.83
2017-02-16T07:47:13.290Z,45.83
2017-02-16T07:48:14.031Z,46.76
2017-02-16T07:49:13.882Z,47.24
2017-02-16T07:50:14.449Z,46.37
2017-02-16T07:51:13.208Z,46.88
2017-02-16T07:52:13.983Z,47.08
2017-02-16T07:53:19.373Z,46.18
2017-02-16T07:54:13.088Z,47.40
2017-02-16T07:55:13.706Z,47.54
2017-02-16T07:56:13.540Z,48.23
2017-02-16T07:57:13.113Z,48.11
2017-02-16T07:58:12.835Z,48.74
2017-02-16T07:59:13.442Z,48.57
2017-02-16T08:00:13.197Z,48.82
2017-02-16T08:01:15.773Z,48.98
2017-02-16T08:02:13.656Z,49.09
2017-02-16T08:03:13.397Z,49.46
2017-02-16T08:04:13.059Z,49.59
2017-02-16T08:05:12.850Z,49.78
2017-02-16T08:06:15.507Z,49.98
2017-02-16T08:07:14.285Z,50.02
2017-02-16T08:08:13.518Z,50.23
2017-02-16T08:09:15.184Z,50.34
2017-02-16T08:10:13.298Z,50.44
2017-02-16T08:11:14.986Z,50.53
2017-02-16T08:12:12.854Z,50.68
2017-02-16T08:13:13.755Z,50.84
2017-02-16T08:14:15.523Z,50.82
2017-02-16T08:15:13.075Z,51.00
2017-02-16T08:16:15.695Z,51.12
2017-02-16T08:17:13.660Z,51.22
2017-02-16T08:18:13.530Z,51.30
2017-02-16T08:19:14.233Z,51.36
2017-02-16T08:20:12.896Z,51.52
2017-02-16T08:21:13.463Z,51.63
2017-02-16T08:22:14.086Z,51.67
2017-02-16T08:23:13.883Z,51.76
2017-02-16T08:24:13.666Z,51.75
2017-02-16T08:25:15.485Z,51.90
2017-02-16T08:26:14.847Z,51.99
2017-02-16T08:27:13.093Z,52.05
2017-02-16T08:28:12.845Z,52.16
2017-02-16T08:29:14.473Z,52.26
2017-02-16T08:30:13.734Z,52.35
2017-02-16T08:31:13.453Z,52.36
2017-02-16T08:32:15.698Z,52.48
2017-02-16T08:33:13.497Z,52.62
2017-02-16T08:34:13.651Z,52.62
2017-02-16T08:35:13.974Z,52.72
2017-02-16T08:36:12.493Z,52.81
2017-02-16T08:37:13.709Z,52.87
2017-02-16T08:38:14.063Z,52.98
2017-02-16T08:39:14.046Z,52.98
2017-02-16T08:40:13.807Z,53.09
2017-02-16T08:41:13.463Z,53.18
2017-02-16T08:42:13.105Z,53.23
2017-02-16T08:43:14.580Z,53.39
2017-02-16T08:44:13.733Z,52.36
2017-02-16T08:45:13.687Z,51.09
2017-02-16T08:46:13.569Z,51.46
2017-02-16T08:47:13.345Z,52.54
2017-02-16T08:48:13.118Z,52.82
2017-02-16T08:49:13.056Z,52.94
2017-02-16T08:50:12.868Z,53.04
2017-02-16T08:51:13.756Z,53.12
2017-02-16T08:52:13.680Z,53.14
2017-02-16T08:53:13.324Z,53.16
2017-02-16T08:54:14.029Z,53.16
2017-02-16T08:55:12.664Z,53.20
2017-02-16T08:56:12.992Z,53.26
2017-02-16T08:57:12.581Z,53.28
2017-02-16T08:58:13.704Z,53.63
2017-02-16T08:59:14.301Z,54.05
2017-02-16T09:00:13.496Z,54.08
2017-02-16T09:01:13.513Z,54.39
2017-02-16T09:02:13.754Z,54.39
2017-02-16T09:03:14.561Z,54.69
2017-02-16T09:04:13.163Z,54.57
2017-02-16T09:05:12.841Z,54.42
2017-02-16T09:06:13.961Z,54.54
2017-02-16T09:07:12.823Z,54.53
2017-02-16T09:08:15.756Z,54.60
2017-02-16T09:09:14.668Z,54.54
2017-02-16T09:10:13.428Z,54.61
2017-02-16T09:11:13.308Z,54.63
2017-02-16T09:12:13.173Z,54.63
2017-02-16T09:13:13.085Z,54.57
2017-02-16T09:14:15.063Z,54.69
2017-02-16T09:15:12.045Z,54.78
2017-02-16T09:16:13.182Z,54.93
2017-02-16T09:17:15.074Z,54.88
2017-02-16T09:18:13.917Z,54.98
2017-02-16T09:19:13.535Z,54.94
2017-02-16T09:20:13.681Z,54.96
2017-02-16T09:21:12.888Z,54.99
2017-02-16T09:22:14.874Z,54.91
2017-02-16T09:23:13.611Z,54.92
2017-02-16T09:24:13.476Z,54.91
2017-02-16T09:25:12.703Z,54.88
2017-02-16T09:26:14.472Z,54.97
2017-02-16T09:27:14.231Z,54.93
2017-02-16T09:28:12.927Z,54.96
2017-02-16T09:29:15.615Z,54.99
2017-02-16T09:30:13.716Z,55.05
2017-02-16T09:31:15.117Z,55.05
2017-02-16T09:32:12.845Z,55.07
2017-02-16T09:33:15.216Z,55.08
2017-02-16T09:34:14.009Z,55.23
2017-02-16T09:35:13.739Z,55.39
2017-02-16T09:36:15.396Z,55.31
2017-02-16T09:37:14.014Z,55.36
2017-02-16T09:38:12.765Z,55.48
2017-02-16T09:39:13.634Z,55.44
2017-02-16T09:40:13.871Z,55.74
2017-02-16T09:41:13.519Z,55.80
2017-02-16T09:42:13.206Z,55.89
2017-02-16T09:43:13.907Z,55.83
2017-02-16T09:44:14.319Z,55.83
2017-02-16T09:45:14.417Z,55.92
2017-02-16T09:46:13.072Z,55.91
2017-02-16T09:47:12.784Z,55.89
2017-02-16T09:48:13.642Z,56.04
2017-02-16T09:49:12.859Z,56.21
2017-02-16T09:50:13.124Z,56.14
2017-02-16T09:51:12.116Z,56.25
2017-02-16T09:52:12.069Z,56.32
2017-02-16T09:53:12.187Z,56.28
2017-02-16T09:54:12.273Z,56.27
2017-02-16T09:55:12.447Z,56.32
2017-02-16T09:56:12.441Z,56.32
2017-02-16T09:57:13.184Z,56.50
2017-02-16T09:58:13.045Z,56.49
2017-02-16T09:59:12.306Z,56.47
2017-02-16T10:00:13.244Z,56.48
2017-02-16T10:01:13.006Z,56.45
2017-02-16T10:02:11.854Z,56.47
2017-02-16T10:03:12.929Z,56.45
2017-02-16T10:04:12.095Z,56.45
2017-02-16T10:05:14.164Z,56.50
2017-02-16T10:06:12.382Z,56.61
2017-02-16T10:07:14.877Z,56.73
2017-02-16T10:08:14.081Z,56.60
2017-02-16T10:09:12.269Z,56.52
2017-02-16T10:10:12.889Z,56.49
2017-02-16T10:11:13.644Z,56.52
2017-02-16T10:12:13.727Z,56.53
2017-02-16T10:13:13.686Z,56.83
2017-02-16T10:14:13.053Z,56.67
2017-02-16T10:15:12.775Z,56.28
2017-02-16T10:16:12.905Z,56.56
2017-02-16T10:17:13.157Z,56.67
2017-02-16T10:18:12.838Z,56.55
2017-02-16T10:19:13.055Z,56.51
2017-02-16T10:20:13.896Z,56.37
2017-02-16T10:21:11.932Z,56.55
2017-02-16T10:23:10.877Z,56.48
2017-02-16T10:23:13.316Z,56.67
2017-02-16T10:24:13.999Z,56.86
2017-02-16T10:25:12.842Z,56.77
2017-02-16T10:26:15.327Z,57.00
2017-02-16T10:27:12.544Z,57.01
2017-02-16T10:28:12.668Z,57.07
2017-02-16T10:29:13.317Z,57.12
2017-02-16T10:30:13.075Z,57.08
2017-02-16T10:31:12.094Z,57.14
2017-02-16T10:32:12.312Z,57.13
2017-02-16T10:33:13.172Z,57.18
2017-02-16T10:34:13.096Z,57.34
2017-02-16T10:35:12.461Z,57.35
2017-02-16T10:36:12.626Z,57.44
2017-02-16T10:37:13.181Z,57.45
2017-02-16T10:38:14.223Z,57.37
2017-02-16T10:39:12.285Z,57.42
2017-02-16T10:40:15.194Z,57.41
2017-02-16T10:41:13.084Z,57.40
2017-02-16T10:42:12.926Z,57.50
2017-02-16T10:43:12.596Z,57.49
2017-02-16T10:44:13.793Z,57.45
2017-02-16T10:45:13.258Z,57.47
2017-02-16T10:46:12.273Z,57.50
2017-02-16T10:47:10.884Z,57.52
2017-02-16T10:48:11.537Z,57.43
2017-02-16T10:49:12.590Z,57.58
2017-02-16T10:50:14.462Z,57.01
2017-02-16T10:51:13.060Z,56.80
2017-02-16T10:52:12.099Z,56.58
2017-02-16T10:53:12.283Z,56.75
2017-02-16T10:54:13.267Z,56.72
2017-02-16T10:55:12.231Z,56.63
2017-02-16T10:56:12.268Z,56.79
2017-02-16T10:57:12.488Z,56.76
2017-02-16T10:58:12.726Z,56.90
2017-02-16T10:59:12.823Z,56.96
2017-02-16T11:00:13.086Z,56.95
2017-02-16T11:01:12.177Z,57.10
2017-02-16T11:02:13.933Z,57.14
2017-02-16T11:03:11.824Z,57.10
2017-02-16T11:04:12.741Z,57.21
2017-02-16T11:05:12.831Z,57.04
2017-02-16T11:06:14.773Z,57.00
2017-02-16T11:07:12.847Z,57.28
2017-02-16T11:08:14.677Z,57.93
2017-02-16T11:09:14.373Z,58.13
2017-02-16T11:10:12.504Z,58.26
2017-02-16T11:11:13.342Z,58.36
2017-02-16T11:12:12.579Z,58.32
2017-02-16T11:13:12.643Z,58.23
2017-02-16T11:14:13.426Z,58.23
2017-02-16T11:15:14.456Z,58.22
2017-02-16T11:16:13.307Z,58.25
2017-02-16T11:17:15.157Z,58.60
2017-02-16T11:18:12.205Z,58.43
2017-02-16T11:19:13.555Z,58.39
2017-02-16T11:20:12.132Z,58.42
2017-02-16T11:21:11.284Z,58.46
2017-02-16T11:22:12.340Z,58.42
2017-02-16T11:23:13.094Z,58.40
2017-02-16T11:24:12.284Z,58.41
2017-02-16T11:25:13.083Z,58.33
2017-02-16T11:26:12.185Z,58.45
2017-02-16T11:27:11.017Z,58.46
2017-02-16T11:28:12.748Z,57.54
2017-02-16T11:29:13.706Z,58.21
2017-02-16T11:30:12.745Z,58.26
2017-02-16T11:31:12.922Z,58.31
2017-02-16T11:32:13.098Z,58.32
2017-02-16T11:33:12.782Z,58.32
2017-02-16T11:34:12.834Z,58.34
2017-02-16T11:35:13.767Z,58.29
2017-02-16T11:36:13.727Z,58.36
2017-02-16T11:37:11.754Z,58.36
2017-02-16T11:38:12.457Z,58.37
2017-02-16T11:39:13.084Z,58.36
2017-02-16T11:40:12.089Z,58.40
2017-02-16T11:41:12.263Z,58.36
2017-02-16T11:42:14.306Z,58.40
2017-02-16T11:43:12.474Z,58.45
2017-02-16T11:44:12.477Z,58.38
2017-02-16T11:45:13.538Z,58.40
2017-02-16T11:46:13.133Z,58.36
2017-02-16T11:47:12.797Z,58.39
2017-02-16T11:48:14.844Z,58.36
2017-02-16T11:49:12.761Z,58.41
2017-02-16T11:50:12.833Z,58.41
2017-02-16T11:51:14.594Z,58.40
2017-02-16T11:52:13.479Z,58.46
2017-02-16T11:53:10.123Z,58.47
2017-02-16T11:54:11.233Z,58.47
2017-02-16T11:55:12.468Z,58.46
2017-02-16T11:56:12.505Z,58.47
2017-02-16T11:57:13.326Z,58.52
2017-02-16T11:58:13.083Z,58.61
2017-02-16T11:59:12.138Z,58.65
2017-02-16T12:00:12.146Z,58.62
2017-02-16T12:01:12.694Z,58.63
2017-02-16T12:02:15.167Z,58.66
2017-02-16T12:03:12.485Z,58.68
2017-02-16T12:04:11.585Z,58.73
2017-02-16T12:05:13.387Z,58.68
2017-02-16T12:06:13.313Z,58.64
2017-02-16T12:07:13.239Z,58.57
2017-02-16T12:08:14.548Z,58.75
2017-02-16T12:09:11.247Z,58.76
2017-02-16T12:10:11.445Z,58.78
2017-02-16T12:11:12.118Z,58.75
2017-02-16T12:12:12.410Z,58.87
2017-02-16T12:13:12.611Z,58.85
2017-02-16T12:14:13.689Z,58.90
2017-02-16T12:15:12.828Z,58.87
2017-02-16T12:16:15.871Z,58.92
2017-02-16T12:17:13.439Z,58.98
2017-02-16T12:18:13.243Z,58.97
2017-02-16T12:19:12.499Z,58.98
2017-02-16T12:20:13.305Z,58.99
2017-02-16T12:21:12.265Z,58.98
2017-02-16T12:22:12.476Z,58.95
2017-02-16T12:23:12.499Z,58.93
2017-02-16T12:24:13.236Z,58.90
2017-02-16T12:25:12.934Z,58.89
2017-02-16T12:26:12.519Z,58.82
2017-02-16T12:27:12.655Z,58.88
2017-02-16T12:28:12.830Z,58.86
2017-02-16T12:29:13.860Z,58.94
2017-02-16T12:30:13.194Z,58.95
2017-02-16T12:31:12.216Z,58.96
2017-02-16T12:32:12.304Z,59.01
2017-02-16T12:33:13.937Z,59.04
2017-02-16T12:34:12.096Z,59.06
2017-02-16T12:35:12.903Z,59.03
2017-02-16T12:36:13.735Z,58.97
2017-02-16T12:37:14.048Z,58.97
2017-02-16T12:38:12.743Z,58.99
2017-02-16T12:39:12.841Z,59.06
2017-02-16T12:40:13.604Z,59.00
2017-02-16T12:41:13.548Z,59.09
2017-02-16T12:42:14.431Z,59.07
2017-02-16T12:43:12.447Z,59.07
2017-02-16T12:44:12.508Z,59.03
2017-02-16T12:45:13.488Z,59.06
2017-02-16T12:46:13.300Z,59.08
2017-02-16T12:47:12.284Z,59.03
2017-02-16T12:48:11.330Z,59.05
2017-02-16T12:49:10.396Z,59.07
2017-02-16T12:50:12.747Z,59.22
2017-02-16T12:51:12.915Z,59.21
2017-02-16T12:52:13.735Z,59.18
2017-02-16T12:53:14.069Z,59.16